createdAt,value
2023-02-11T00:01:33.853Z,64.90
2023-02-11T00:04:02.289Z,65.20
2023-02-11T00:06:33.580Z,65.00
2023-02-11T00:09:01.618Z,64.90
2023-02-11T00:11:30.439Z,64.70
2023-02-11T00:14:04.606Z,64.70
2023-02-11T00:16:32.346Z,64.80
2023-02-11T00:19:01.521Z,64.50
2023-02-11T00:21:28.962Z,64.30
2023-02-11T00:23:57.177Z,64.40
2023-02-11T00:26:28.335Z,64.60
2023-02-11T00:28:55.339Z,65.00
2023-02-11T00:31:24.770Z,65.10
2023-02-11T00:33:53.033Z,66.10
2023-02-11T00:36:24.104Z,66.10
2023-02-11T00:38:52.786Z,66.30
2023-02-11T00:41:20.429Z,66.00
2023-02-11T00:43:48.607Z,66.10
2023-02-11T00:46:16.839Z,66.20
2023-02-11T00:48:44.312Z,66.40
2023-02-11T00:51:11.379Z,66.50
2023-02-11T00:53:38.725Z,66.40
2023-02-11T00:56:06.684Z,66.30
2023-02-11T00:58:33.972Z,66.30
2023-02-11T01:01:01.007Z,66.10
2023-02-11T01:03:28.268Z,66.00
2023-02-11T01:05:55.680Z,66.00
2023-02-11T01:08:22.933Z,66.00
2023-02-11T01:11:05.875Z,65.90
2023-02-11T01:13:37.268Z,66.00
2023-02-11T01:16:08.479Z,65.90
2023-02-11T01:18:36.204Z,65.90
2023-02-11T01:21:03.839Z,65.70
2023-02-11T01:23:31.325Z,65.80
2023-02-11T01:25:58.561Z,65.90
2023-02-11T01:28:30.133Z,65.80
2023-02-11T01:31:01.779Z,66.00
2023-02-11T01:33:29.180Z,65.90
2023-02-11T01:35:59.745Z,66.00
2023-02-11T01:38:28.550Z,65.80
2023-02-11T01:41:04.420Z,65.80
2023-02-11T01:43:35.745Z,65.90
2023-02-11T01:46:17.742Z,65.60
2023-02-11T01:48:49.873Z,65.50
2023-02-11T01:51:29.749Z,65.50
2023-02-11T01:54:16.942Z,65.50
2023-02-11T01:57:08.066Z,65.60
2023-02-11T01:59:49.193Z,65.60
2023-02-11T02:02:20.415Z,65.50
2023-02-11T02:04:58.556Z,65.40
2023-02-11T02:07:45.768Z,65.40
2023-02-11T02:10:19.474Z,65.70
2023-02-11T02:12:46.789Z,65.60
2023-02-11T02:15:35.022Z,65.60
2023-02-11T02:18:40.586Z,65.50
2023-02-11T02:21:54.052Z,65.40
2023-02-11T02:24:57.865Z,65.30
2023-02-11T02:27:52.640Z,65.10
2023-02-11T02:30:57.690Z,65.20
2023-02-11T02:33:45.340Z,65.00
2023-02-11T02:36:33.714Z,65.00
2023-02-11T02:39:09.317Z,65.00
2023-02-11T02:41:38.629Z,65.00
2023-02-11T02:44:07.628Z,65.00
2023-02-11T02:46:36.567Z,64.90
2023-02-11T02:49:07.835Z,65.00
2023-02-11T02:52:04.641Z,64.90
2023-02-11T02:54:37.856Z,64.90
2023-02-11T02:57:39.369Z,65.00
2023-02-11T03:00:22.881Z,64.90
2023-02-11T03:03:35.589Z,65.00
2023-02-11T03:06:24.107Z,64.90
2023-02-11T03:08:59.181Z,64.80
2023-02-11T03:11:28.256Z,64.80
2023-02-11T03:13:57.011Z,64.80
2023-02-11T03:16:27.527Z,64.80
2023-02-11T03:19:04.227Z,64.80
2023-02-11T03:21:33.782Z,64.80
2023-02-11T03:24:10.150Z,64.90
2023-02-11T03:26:54.362Z,64.90
2023-02-11T03:29:40.817Z,64.80
2023-02-11T03:32:32.881Z,64.80
2023-02-11T03:35:13.600Z,64.60
2023-02-11T03:37:59.353Z,64.70
2023-02-11T03:40:37.028Z,64.60
2023-02-11T03:43:32.607Z,64.60
2023-02-11T03:46:01.816Z,64.40
2023-02-11T03:48:40.351Z,64.60
2023-02-11T03:51:11.335Z,64.60
2023-02-11T03:53:41.765Z,64.50
2023-02-11T03:56:13.985Z,64.40
2023-02-11T03:58:40.979Z,64.40
2023-02-11T04:01:09.838Z,64.30
2023-02-11T04:03:36.949Z,64.30
2023-02-11T04:06:07.344Z,64.30
2023-02-11T04:08:34.838Z,64.30
2023-02-11T04:11:01.845Z,64.30
2023-02-11T04:13:29.742Z,64.40
2023-02-11T04:15:56.837Z,64.40
2023-02-11T04:18:23.875Z,64.60
2023-02-11T04:20:51.178Z,64.70
2023-02-11T04:23:18.360Z,64.70
2023-02-11T04:25:45.336Z,64.70
2023-02-11T04:28:12.328Z,64.80
2023-02-11T04:30:39.348Z,64.80
2023-02-11T04:33:06.299Z,64.70
2023-02-11T04:35:33.580Z,64.80
2023-02-11T04:38:00.474Z,64.80
2023-02-11T04:40:27.570Z,64.80
2023-02-11T04:42:54.794Z,64.80
2023-02-11T04:45:21.749Z,64.80
2023-02-11T04:47:48.697Z,64.70
2023-02-11T04:50:15.839Z,64.80
2023-02-11T04:52:42.795Z,64.80
2023-02-11T04:55:09.697Z,64.80
2023-02-11T04:57:36.719Z,65.00
2023-02-11T05:00:05.954Z,65.10
2023-02-11T05:02:32.954Z,65.20
2023-02-11T05:04:59.889Z,65.20
2023-02-11T05:07:27.053Z,65.30
2023-02-11T05:09:54.151Z,65.30
2023-02-11T05:12:21.776Z,65.30
2023-02-11T05:14:48.712Z,65.20
2023-02-11T05:17:15.798Z,65.20
2023-02-11T05:19:42.811Z,65.20
2023-02-11T05:22:09.949Z,65.30
2023-02-11T05:24:36.939Z,65.30
2023-02-11T05:27:03.972Z,65.40
2023-02-11T05:29:30.918Z,65.30
2023-02-11T05:32:00.170Z,65.30
2023-02-11T05:34:27.242Z,65.20
2023-02-11T05:36:54.361Z,65.30
2023-02-11T05:39:21.516Z,65.20
2023-02-11T05:41:48.442Z,66.10
2023-02-11T05:44:15.474Z,65.20
2023-02-11T05:46:42.592Z,65.30
2023-02-11T05:49:09.737Z,65.30
2023-02-11T05:51:36.690Z,65.10
2023-02-11T05:54:03.969Z,65.20
2023-02-11T05:56:30.975Z,65.10
2023-02-11T05:59:00.049Z,65.10
2023-02-11T06:01:27.417Z,65.10
2023-02-11T06:03:54.974Z,65.00
2023-02-11T06:06:22.212Z,64.80
2023-02-11T06:08:49.288Z,64.80
2023-02-11T06:11:17.853Z,64.80
2023-02-11T06:13:45.558Z,64.80
2023-02-11T06:16:12.576Z,64.80
2023-02-11T06:18:39.614Z,64.70
2023-02-11T06:21:11.721Z,64.70
2023-02-11T06:23:39.142Z,64.70
2023-02-11T06:26:09.090Z,64.60
2023-02-11T06:28:36.201Z,65.50
2023-02-11T06:31:07.754Z,64.50
2023-02-11T06:33:35.495Z,64.40
2023-02-11T06:36:03.506Z,64.40
2023-02-11T06:38:30.985Z,64.30
2023-02-11T06:40:59.485Z,64.30
2023-02-11T06:43:27.631Z,64.30
2023-02-11T06:45:56.298Z,64.30
2023-02-11T06:48:24.017Z,64.20
2023-02-11T06:50:52.113Z,64.10
2023-02-11T06:53:20.011Z,64.10
2023-02-11T06:55:46.987Z,64.00
2023-02-11T06:58:14.391Z,64.10
2023-02-11T07:00:42.989Z,64.00
2023-02-11T07:03:10.013Z,63.90
2023-02-11T07:05:39.017Z,63.90
2023-02-11T07:08:06.354Z,63.80
2023-02-11T07:10:34.642Z,63.90
2023-02-11T07:13:01.538Z,63.80
2023-02-11T07:15:30.014Z,63.70
2023-02-11T07:17:57.076Z,63.90
2023-02-11T07:20:24.298Z,63.20
2023-02-11T07:22:51.672Z,63.50
2023-02-11T07:25:18.757Z,63.30
2023-02-11T07:27:45.867Z,63.20
2023-02-11T07:30:13.885Z,63.10
2023-02-11T07:32:40.970Z,63.10
2023-02-11T07:35:08.000Z,62.80
2023-02-11T07:37:35.613Z,62.70
2023-02-11T07:40:03.161Z,62.80
2023-02-11T07:42:30.197Z,62.70
2023-02-11T07:44:57.115Z,62.50
2023-02-11T07:47:24.348Z,62.50
2023-02-11T07:49:51.232Z,62.50
2023-02-11T07:52:18.482Z,62.20
2023-02-11T07:54:45.924Z,62.40
2023-02-11T07:57:12.967Z,62.10
2023-02-11T07:59:39.872Z,61.70
2023-02-11T08:02:06.919Z,61.90
2023-02-11T08:04:33.970Z,61.80
2023-02-11T08:07:00.929Z,61.70
2023-02-11T08:09:27.864Z,61.70
2023-02-11T08:11:54.753Z,61.70
2023-02-11T08:14:25.155Z,61.40
2023-02-11T08:16:52.114Z,61.40
2023-02-11T08:19:19.222Z,61.30
2023-02-11T08:21:47.041Z,60.80
2023-02-11T08:24:14.126Z,60.80
2023-02-11T08:26:42.201Z,60.60
2023-02-11T08:29:13.448Z,60.60
2023-02-11T08:31:43.806Z,60.50
2023-02-11T08:34:14.059Z,60.60
2023-02-11T08:36:43.334Z,60.10
2023-02-11T08:39:23.323Z,60.10
2023-02-11T08:41:53.451Z,59.80
2023-02-11T08:44:21.974Z,60.00
2023-02-11T08:46:49.958Z,60.20
2023-02-11T08:49:17.407Z,59.80
2023-02-11T08:51:45.063Z,59.50
2023-02-11T08:54:12.840Z,59.80
2023-02-11T08:56:40.175Z,59.50
2023-02-11T08:59:09.522Z,59.00
2023-02-11T09:01:36.742Z,59.00
2023-02-11T09:04:03.913Z,58.80
2023-02-11T09:06:31.635Z,58.80
2023-02-11T09:08:58.754Z,58.90
2023-02-11T09:11:32.555Z,58.60
2023-02-11T09:14:01.417Z,58.70
2023-02-11T09:16:32.627Z,58.30
2023-02-11T09:19:02.130Z,58.70
2023-02-11T09:21:30.327Z,58.10
2023-02-11T09:23:57.513Z,57.70
2023-02-11T09:26:28.910Z,57.90
2023-02-11T09:28:56.543Z,57.40
2023-02-11T09:31:26.156Z,57.40
2023-02-11T09:33:57.510Z,57.70
2023-02-11T09:36:28.839Z,57.60
2023-02-11T09:38:59.534Z,57.70
2023-02-11T09:41:35.897Z,57.30
2023-02-11T09:44:07.329Z,57.50
2023-02-11T09:46:42.219Z,57.50
2023-02-11T09:49:19.658Z,57.40
2023-02-11T09:52:02.322Z,58.10
2023-02-11T09:54:53.179Z,57.40
2023-02-11T09:57:28.553Z,57.20
2023-02-11T09:59:57.753Z,57.70
2023-02-11T10:06:49.383Z,57.60
2023-02-11T10:09:48.506Z,57.10
2023-02-11T10:12:21.328Z,57.00
2023-02-11T10:15:08.924Z,56.60
2023-02-11T10:17:51.000Z,56.70
2023-02-11T10:20:38.632Z,56.70
2023-02-11T10:23:20.884Z,56.80
2023-02-11T10:25:54.476Z,56.70
2023-02-11T10:28:25.045Z,56.90
2023-02-11T10:31:05.703Z,56.70
2023-02-11T10:33:49.892Z,56.60
2023-02-11T10:36:19.168Z,56.30
2023-02-11T10:38:46.403Z,56.40
2023-02-11T10:41:31.190Z,56.10
2023-02-11T10:44:03.141Z,56.30
2023-02-11T10:46:34.103Z,56.20
2023-02-11T10:49:01.210Z,56.10
2023-02-11T10:51:34.383Z,56.20
2023-02-11T10:54:03.997Z,56.30
2023-02-11T10:56:36.676Z,56.50
2023-02-11T10:59:28.454Z,56.60
2023-02-11T11:02:22.060Z,56.00
2023-02-11T11:04:49.197Z,55.80
2023-02-11T11:07:30.772Z,55.70
2023-02-11T11:10:08.433Z,56.20
2023-02-11T11:12:48.763Z,55.60
2023-02-11T11:15:22.212Z,56.10
2023-02-11T11:17:51.789Z,56.20
2023-02-11T11:20:23.879Z,56.30
2023-02-11T11:23:08.287Z,56.20
2023-02-11T11:25:39.944Z,55.70
2023-02-11T11:28:20.649Z,55.80
2023-02-11T11:30:48.362Z,54.10
2023-02-11T11:33:27.109Z,54.30
2023-02-11T11:36:20.263Z,54.40
2023-02-11T11:38:54.594Z,54.40
2023-02-11T11:41:27.779Z,53.90
2023-02-11T11:44:02.824Z,54.30
2023-02-11T11:46:41.988Z,53.70
2023-02-11T11:49:33.727Z,53.60
2023-02-11T11:52:22.444Z,54.00
2023-02-11T11:55:03.491Z,54.50
2023-02-11T11:57:34.296Z,54.30
2023-02-11T12:00:01.689Z,54.00
2023-02-11T12:02:56.207Z,54.00
2023-02-11T12:05:50.766Z,54.00
2023-02-11T12:08:34.093Z,53.40
2023-02-11T12:11:51.645Z,53.10
2023-02-11T12:14:38.636Z,53.30
2023-02-11T12:17:26.130Z,53.10
2023-02-11T12:20:12.726Z,52.70
2023-02-11T12:23:09.246Z,52.90
2023-02-11T12:25:54.475Z,53.20
2023-02-11T12:28:39.034Z,53.10
2023-02-11T12:31:44.780Z,53.70
2023-02-11T12:35:01.242Z,53.20
2023-02-11T12:38:18.812Z,53.90
2023-02-11T12:41:51.027Z,54.30
2023-02-11T12:44:42.389Z,54.80
2023-02-11T12:48:01.287Z,54.80
2023-02-11T12:50:44.757Z,54.70
2023-02-11T12:53:44.797Z,54.60
2023-02-11T12:56:31.651Z,54.60
2023-02-11T12:59:01.740Z,55.10
2023-02-11T13:01:40.806Z,55.40
2023-02-11T13:04:36.005Z,55.50
2023-02-11T13:07:12.728Z,55.40
2023-02-11T13:09:53.144Z,55.30
2023-02-11T13:12:38.680Z,55.70
2023-02-11T13:15:13.664Z,55.80
2023-02-11T13:18:19.119Z,58.00
2023-02-11T13:21:15.143Z,57.90
2023-02-11T13:24:29.796Z,58.20
2023-02-11T13:27:08.888Z,58.20
2023-02-11T13:30:05.130Z,58.60
2023-02-11T13:32:53.830Z,59.10
2023-02-11T13:35:35.425Z,58.80
2023-02-11T13:38:06.411Z,59.10
2023-02-11T13:40:39.282Z,59.40
2023-02-11T13:43:20.635Z,59.50
2023-02-11T13:45:49.883Z,59.80
2023-02-11T13:48:32.042Z,59.90
2023-02-11T13:51:06.487Z,59.80
2023-02-11T13:53:57.967Z,60.00
2023-02-11T13:56:39.782Z,59.90
2023-02-11T13:59:31.820Z,60.20
2023-02-11T14:02:40.266Z,60.20
2023-02-11T14:05:25.780Z,60.60
2023-02-11T14:08:26.388Z,60.70
2023-02-11T14:10:58.333Z,60.90
2023-02-11T14:13:28.988Z,61.00
2023-02-11T14:16:13.598Z,61.00
2023-02-11T14:18:49.854Z,61.00
2023-02-11T14:21:32.452Z,61.30
2023-02-11T14:24:02.437Z,61.50
2023-02-11T14:26:36.542Z,61.60
2023-02-11T14:29:30.090Z,61.80
2023-02-11T14:32:06.252Z,61.80
2023-02-11T14:34:54.571Z,62.10
2023-02-11T14:38:00.123Z,62.20
2023-02-11T14:40:35.219Z,62.40
2023-02-11T14:43:13.800Z,62.80
2023-02-11T14:45:42.830Z,63.20
2023-02-11T14:48:17.981Z,63.40
2023-02-11T14:51:26.571Z,63.40
2023-02-11T14:54:00.558Z,63.40
2023-02-11T14:56:34.442Z,63.80
2023-02-11T14:59:02.625Z,63.90
2023-02-11T15:01:34.072Z,63.90
2023-02-11T15:04:04.020Z,64.00
2023-02-11T15:06:39.343Z,64.10
2023-02-11T15:09:18.599Z,64.20
2023-02-11T15:11:51.680Z,64.30
2023-02-11T15:14:28.870Z,64.50
2023-02-11T15:17:00.342Z,64.80
2023-02-11T15:19:44.329Z,64.80
2023-02-11T15:22:26.337Z,64.80
2023-02-11T15:25:16.717Z,65.10
2023-02-11T15:27:48.438Z,65.20
2023-02-11T15:30:24.839Z,65.60
2023-02-11T15:33:03.675Z,65.70
2023-02-11T15:35:38.546Z,65.70
2023-02-11T15:38:05.787Z,66.10
2023-02-11T15:40:35.951Z,66.20
2023-02-11T15:43:07.487Z,66.20
2023-02-11T15:45:39.752Z,66.50
2023-02-11T15:48:26.824Z,66.50
2023-02-11T15:51:01.904Z,66.50
2023-02-11T15:53:33.391Z,66.60
2023-02-11T15:56:26.448Z,66.50
2023-02-11T15:58:59.988Z,66.20
2023-02-11T16:01:36.396Z,66.50
2023-02-11T16:04:05.698Z,66.40
2023-02-11T16:06:42.435Z,67.20
2023-02-11T16:09:10.160Z,66.40
2023-02-11T16:11:47.346Z,66.50
2023-02-11T16:14:33.768Z,66.40
2023-02-11T16:17:06.460Z,66.30
2023-02-11T16:19:35.169Z,66.60
2023-02-11T16:22:09.964Z,66.60
2023-02-11T16:24:38.905Z,66.50
2023-02-11T16:27:24.590Z,66.60
2023-02-11T16:29:52.525Z,66.50
2023-02-11T16:32:23.172Z,66.50
2023-02-11T16:34:50.991Z,66.40
2023-02-11T16:37:18.288Z,66.30
2023-02-11T16:39:45.340Z,66.40
2023-02-11T16:42:12.652Z,66.30
2023-02-11T16:44:39.826Z,66.40
2023-02-11T16:47:18.529Z,66.30
2023-02-11T16:49:45.563Z,66.40
2023-02-11T16:52:16.799Z,66.30
2023-02-11T16:54:43.753Z,66.30
2023-02-11T16:57:24.378Z,66.40
2023-02-11T16:59:52.474Z,66.50
2023-02-11T17:02:31.687Z,66.60
2023-02-11T17:05:06.353Z,66.80
2023-02-11T17:07:33.629Z,66.70
2023-02-11T17:10:00.821Z,66.80
2023-02-11T17:12:27.795Z,67.10
2023-02-11T17:14:54.929Z,67.20
2023-02-11T17:17:24.625Z,67.40
2023-02-11T17:19:51.700Z,67.30
2023-02-11T17:22:19.007Z,67.40
2023-02-11T17:24:46.214Z,67.50
2023-02-11T17:27:13.830Z,67.60
2023-02-11T17:29:41.118Z,67.70
2023-02-11T17:32:08.167Z,67.80
2023-02-11T17:34:35.279Z,68.00
2023-02-11T17:37:08.785Z,68.20
2023-02-11T17:39:40.085Z,68.30
2023-02-11T17:42:08.542Z,68.80
2023-02-11T17:44:35.678Z,68.90
2023-02-11T17:47:02.643Z,69.30
2023-02-11T17:49:29.688Z,70.50
2023-02-11T17:51:56.774Z,70.00
2023-02-11T17:54:24.763Z,70.00
2023-02-11T17:56:55.114Z,70.60
2023-02-11T17:59:25.232Z,71.00
2023-02-11T18:01:52.378Z,71.10
2023-02-11T18:04:20.317Z,71.30
2023-02-11T18:06:47.708Z,71.60
2023-02-11T18:09:14.695Z,71.90
2023-02-11T18:11:42.255Z,72.40
2023-02-11T18:14:11.041Z,72.50
2023-02-11T18:16:39.849Z,72.80
2023-02-11T18:19:07.803Z,73.00
2023-02-11T18:21:35.264Z,73.40
2023-02-11T18:24:06.493Z,73.60
2023-02-11T18:26:34.761Z,74.00
2023-02-11T18:29:03.725Z,74.50
2023-02-11T18:31:30.820Z,74.90
2023-02-11T18:33:57.985Z,75.10
2023-02-11T18:36:25.004Z,75.10
2023-02-11T18:38:53.653Z,75.70
2023-02-11T18:41:21.411Z,76.10
2023-02-11T18:43:48.601Z,76.20
2023-02-11T18:46:16.223Z,76.50
2023-02-11T18:48:45.003Z,76.50
2023-02-11T18:51:20.695Z,76.30
2023-02-11T18:53:47.723Z,76.10
2023-02-11T18:56:20.198Z,75.70
2023-02-11T18:58:48.330Z,75.70
2023-02-11T19:01:27.914Z,75.30
2023-02-11T19:03:57.626Z,75.10
2023-02-11T19:06:28.293Z,75.00
2023-02-11T19:08:59.899Z,74.80
2023-02-11T19:11:47.688Z,74.60
2023-02-11T19:14:28.278Z,74.40
2023-02-11T19:16:58.312Z,74.10
2023-02-11T19:19:28.638Z,73.90
2023-02-11T19:21:56.538Z,73.70
2023-02-11T19:24:24.216Z,73.80
2023-02-11T19:26:53.875Z,73.80
2023-02-11T19:29:21.211Z,73.80
2023-02-11T19:31:48.344Z,73.80
2023-02-11T19:34:16.847Z,73.80
2023-02-11T19:36:44.059Z,73.80
2023-02-11T19:39:11.499Z,73.80
2023-02-11T19:41:38.925Z,73.80
2023-02-11T19:44:07.747Z,73.80
2023-02-11T19:46:38.321Z,73.80
2023-02-11T19:49:05.675Z,73.80
2023-02-11T19:51:33.874Z,73.80
2023-02-11T19:54:00.857Z,73.80
2023-02-11T19:56:28.609Z,73.60
2023-02-11T19:58:55.658Z,73.40
2023-02-11T20:01:24.449Z,73.30
2023-02-11T20:03:54.120Z,73.40
2023-02-11T20:06:25.431Z,73.70
2023-02-11T20:08:58.866Z,74.70
2023-02-11T20:11:29.421Z,73.80
2023-02-11T20:13:57.954Z,73.80
2023-02-11T20:16:44.559Z,73.80
2023-02-11T20:19:17.744Z,74.40
2023-02-11T20:21:48.578Z,74.40
2023-02-11T20:24:17.901Z,75.10
2023-02-11T20:26:48.017Z,75.20
2023-02-11T20:29:17.233Z,75.60
2023-02-11T20:31:44.790Z,76.30
2023-02-11T20:34:12.439Z,76.40
2023-02-11T20:36:40.446Z,76.40
2023-02-11T20:39:07.790Z,76.50
2023-02-11T20:41:39.136Z,77.00
2023-02-11T20:44:08.368Z,77.20
2023-02-11T20:46:40.290Z,77.60
2023-02-11T20:49:13.372Z,77.90
2023-02-11T20:51:41.007Z,77.90
2023-02-11T20:54:17.726Z,77.70
2023-02-11T20:56:47.959Z,78.30
2023-02-11T20:59:16.866Z,78.00
2023-02-11T21:01:48.375Z,78.10
2023-02-11T21:04:27.675Z,78.40
2023-02-11T21:06:59.372Z,78.60
2023-02-11T21:09:31.282Z,78.80
2023-02-11T21:11:59.043Z,79.00
2023-02-11T21:14:27.109Z,78.90
2023-02-11T21:16:54.378Z,79.20
2023-02-11T21:19:21.594Z,78.90
2023-02-11T21:21:48.915Z,78.80
2023-02-11T21:24:16.021Z,78.90
2023-02-11T21:26:43.039Z,79.00
2023-02-11T21:29:10.455Z,79.40
2023-02-11T21:31:38.060Z,79.30
2023-02-11T21:34:05.907Z,79.40
2023-02-11T21:36:33.306Z,79.30
2023-02-11T21:39:01.715Z,79.60
2023-02-11T21:41:28.794Z,79.60
2023-02-11T21:43:56.577Z,79.40
2023-02-11T21:46:24.029Z,79.40
2023-02-11T21:48:51.008Z,79.30
2023-02-11T21:51:22.225Z,79.50
2023-02-11T21:53:57.697Z,79.20
2023-02-11T21:56:29.121Z,79.40
2023-02-11T21:58:59.067Z,79.20
2023-02-11T22:01:33.238Z,79.20
2023-02-11T22:04:00.608Z,79.30
2023-02-11T22:06:31.295Z,79.50
2023-02-11T22:09:05.105Z,79.40
2023-02-11T22:11:32.159Z,79.50
2023-02-11T22:13:59.646Z,79.30
2023-02-11T22:16:27.664Z,79.40
2023-02-11T22:18:58.491Z,79.50
2023-02-11T22:21:26.079Z,79.50
2023-02-11T22:23:55.755Z,79.60
2023-02-11T22:26:24.748Z,79.80
2023-02-11T22:28:52.373Z,79.90
2023-02-11T22:31:32.642Z,79.80
2023-02-11T22:34:00.808Z,79.80
2023-02-11T22:36:37.494Z,79.90
2023-02-11T22:39:09.042Z,79.90
2023-02-11T22:41:38.142Z,80.10
2023-02-11T22:44:05.393Z,80.20
2023-02-11T22:46:32.580Z,80.20
2023-02-11T22:48:59.716Z,80.20
2023-02-11T22:51:29.085Z,80.40
2023-02-11T22:53:58.126Z,80.60
2023-02-11T22:56:27.890Z,80.60
2023-02-11T22:58:58.835Z,80.60
2023-02-11T23:01:26.346Z,80.60
2023-02-11T23:03:53.256Z,80.70
2023-02-11T23:06:20.218Z,80.50
2023-02-11T23:08:48.087Z,80.60
2023-02-11T23:11:19.227Z,80.60
2023-02-11T23:13:49.037Z,80.80
2023-02-11T23:16:20.344Z,80.60
2023-02-11T23:18:48.767Z,80.80
2023-02-11T23:21:23.622Z,80.90
2023-02-11T23:24:00.113Z,80.90
2023-02-11T23:26:28.677Z,80.90
2023-02-11T23:28:58.236Z,80.80
2023-02-11T23:31:34.104Z,80.90
2023-02-11T23:34:01.887Z,80.80
2023-02-11T23:36:30.734Z,80.80
2023-02-11T23:38:57.926Z,80.90
2023-02-11T23:41:25.348Z,80.70
2023-02-11T23:43:55.753Z,80.90
2023-02-11T23:46:24.668Z,81.60
2023-02-11T23:48:52.415Z,80.70
2023-02-11T23:51:19.897Z,80.70
2023-02-11T23:53:49.117Z,80.60
2023-02-11T23:56:23.491Z,80.40
2023-02-11T23:58:53.144Z,80.50
